DGAA/ACC METAR and TAF weather

Enter ICAO airport designator
Station Type Date Time Source
DGAA METAR 2022/12/04 05:00 UTC NOAA

DGAA 040500Z VRB02KT CAVOK 25/24 Q1008 NOSIG


Station Type Date Time Source
DGAA Decoded METAR 2022/12/04 05:00 UTC NOAA

Accra, Ghana (DGAA) 05-36N 000-10W 69M
Dec 04, 2022 - 12:00 AM EST / 2022.12.04 0500 UTC
Wind: Variable at 2 MPH (2 KT):0
Visibility: greater than 7 mile(s):0
Temperature: 77 F (25 C)
Dew Point: 75 F (24 C)
Relative Humidity: 94%
Pressure (altimeter): 29.77 in. Hg (1008 hPa)
ob: DGAA 040500Z VRB02KT CAVOK 25/24 Q1008 NOSIG
cycle: 5

Station Type Date Time Source
DGAA TAF 2022/12/04 06:21 UTC NOAA

TAF TAF DGAA 040500Z 0406/0512 27006KT 9999 FEW015 PROB30
TEMPO 0406/0409 5000 BR
BECMG 0411/0413 19012KT SCT025
BECMG 0423/0501 CAVOK

Example: see airport list